createdAt,value
2024-05-09T00:00:56.312Z,8.97
2024-05-09T00:03:25.672Z,8.90
2024-05-09T00:05:55.135Z,8.81
2024-05-09T00:08:24.727Z,8.79
2024-05-09T00:10:56.852Z,8.72
2024-05-09T00:13:26.391Z,8.64
2024-05-09T00:15:55.787Z,8.59
2024-05-09T00:18:25.367Z,8.69
2024-05-09T00:20:54.899Z,8.64
2024-05-09T00:23:24.314Z,8.65
2024-05-09T00:25:56.334Z,8.74
2024-05-09T00:28:26.105Z,8.73
2024-05-09T00:30:55.663Z,8.90
2024-05-09T00:33:25.208Z,8.94
2024-05-09T00:35:55.050Z,9.02
2024-05-09T00:38:24.458Z,9.26
2024-05-09T00:40:56.509Z,9.38
2024-05-09T00:43:25.901Z,9.54
2024-05-09T00:45:56.854Z,9.60
2024-05-09T00:48:26.735Z,9.68
2024-05-09T00:50:57.654Z,9.72
2024-05-09T00:53:27.602Z,9.84
2024-05-09T00:56:00.312Z,9.90
2024-05-09T00:58:31.664Z,9.91
2024-05-09T01:01:02.416Z,9.99
2024-05-09T01:03:31.962Z,10.02
2024-05-09T01:06:01.476Z,10.07
2024-05-09T01:08:31.142Z,10.12
2024-05-09T01:11:03.308Z,10.14
2024-05-09T01:13:32.704Z,10.22
2024-05-09T01:16:02.555Z,10.26
2024-05-09T01:18:32.217Z,10.34
2024-05-09T01:21:01.747Z,10.36
2024-05-09T01:23:33.920Z,10.35
2024-05-09T01:26:03.405Z,10.37
2024-05-09T01:28:32.753Z,10.50
2024-05-09T01:31:02.135Z,10.52
2024-05-09T01:33:31.677Z,10.50
2024-05-09T01:36:01.809Z,10.51
2024-05-09T01:38:33.836Z,10.48
2024-05-09T01:41:03.330Z,10.43
2024-05-09T01:43:32.820Z,10.43
2024-05-09T01:46:02.338Z,10.43
2024-05-09T01:48:31.846Z,10.44
2024-05-09T01:51:01.381Z,10.41
2024-05-09T01:53:31.082Z,10.43
2024-05-09T01:56:03.227Z,10.32
2024-05-09T01:58:33.138Z,10.24
2024-05-09T02:01:02.579Z,10.15
2024-05-09T02:03:32.089Z,10.15
2024-05-09T02:06:01.845Z,10.04
2024-05-09T02:08:31.531Z,10.08
2024-05-09T02:11:03.869Z,10.02
2024-05-09T02:13:33.331Z,9.99
2024-05-09T02:16:02.716Z,9.96
2024-05-09T02:18:32.153Z,9.94
2024-05-09T02:21:01.687Z,9.90
2024-05-09T02:23:31.360Z,9.91
2024-05-09T02:26:03.434Z,9.79
2024-05-09T02:28:32.784Z,9.72
2024-05-09T02:31:02.124Z,9.66
2024-05-09T02:33:31.731Z,9.67
2024-05-09T02:36:01.362Z,9.80
2024-05-09T02:38:28.170Z,9.82
2024-05-09T02:40:57.901Z,9.80
2024-05-09T02:43:27.532Z,9.82
2024-05-09T02:45:56.890Z,9.82
2024-05-09T02:48:24.082Z,9.87
2024-05-09T02:50:54.072Z,9.87
2024-05-09T02:53:20.849Z,9.87
2024-05-09T02:55:50.399Z,9.94
2024-05-09T02:58:17.218Z,9.92
2024-05-09T03:00:49.850Z,9.76
2024-05-09T03:03:17.072Z,9.77
2024-05-09T03:05:47.144Z,9.67
2024-05-09T03:08:14.247Z,9.78
2024-05-09T03:10:44.174Z,9.67
2024-05-09T03:13:14.158Z,9.54
2024-05-09T03:15:45.554Z,9.41
2024-05-09T03:18:15.223Z,9.31
2024-05-09T03:20:45.398Z,9.25
2024-05-09T03:23:12.537Z,9.16
2024-05-09T03:25:42.052Z,9.14
2024-05-09T03:28:08.808Z,9.01
2024-05-09T03:30:41.999Z,8.94
2024-05-09T03:33:10.764Z,8.86
2024-05-09T03:35:43.496Z,8.78
2024-05-09T03:38:13.049Z,8.62
2024-05-09T03:40:47.821Z,8.53
2024-05-09T03:43:15.274Z,8.40
2024-05-09T03:45:44.974Z,8.36
2024-05-09T03:48:12.659Z,8.48
2024-05-09T03:50:45.132Z,8.51
2024-05-09T03:53:13.567Z,8.57
2024-05-09T03:55:44.090Z,8.53
2024-05-09T03:58:12.764Z,8.53
2024-05-09T04:00:42.607Z,8.55
2024-05-09T04:03:11.802Z,8.51
2024-05-09T04:05:46.102Z,8.54
2024-05-09T04:08:14.236Z,8.57
2024-05-09T04:10:44.167Z,8.56
2024-05-09T04:13:11.218Z,8.50
2024-05-09T04:15:40.714Z,8.53
2024-05-09T04:18:07.733Z,8.64
2024-05-09T04:20:39.998Z,8.69
2024-05-09T04:23:12.352Z,8.69
2024-05-09T04:25:45.456Z,8.71
2024-05-09T04:28:15.750Z,8.90
2024-05-09T04:30:43.121Z,8.90
2024-05-09T04:33:14.300Z,8.95
2024-05-09T04:35:42.625Z,8.86
2024-05-09T04:38:15.717Z,8.73
2024-05-09T04:40:43.070Z,8.74
2024-05-09T04:43:18.823Z,8.68
2024-05-09T04:45:46.243Z,8.80
2024-05-09T04:48:16.596Z,8.83
2024-05-09T04:50:43.854Z,8.90
2024-05-09T04:53:18.678Z,8.93
2024-05-09T04:55:45.894Z,9.07
2024-05-09T04:58:15.306Z,9.04
2024-05-09T05:00:42.903Z,9.07
2024-05-09T05:03:15.845Z,9.09
2024-05-09T05:05:45.307Z,9.14
2024-05-09T05:08:19.855Z,9.09
2024-05-09T05:10:48.562Z,9.27
2024-05-09T05:13:20.388Z,9.28
2024-05-09T05:15:49.290Z,9.36
2024-05-09T05:18:19.375Z,9.37
2024-05-09T05:20:46.500Z,9.38
2024-05-09T05:23:21.174Z,9.46
2024-05-09T05:25:48.837Z,9.54
2024-05-09T05:28:19.196Z,9.54
2024-05-09T05:30:46.467Z,9.59
2024-05-09T05:33:18.138Z,9.75
2024-05-09T05:35:45.284Z,9.79
2024-05-09T05:38:14.750Z,9.91
2024-05-09T05:40:44.417Z,10.03
2024-05-09T05:43:19.780Z,10.02
2024-05-09T05:45:46.902Z,10.15
2024-05-09T05:48:17.947Z,10.21
2024-05-09T05:50:45.647Z,10.30
2024-05-09T05:53:15.602Z,10.45
2024-05-09T05:55:45.264Z,10.52
2024-05-09T05:58:15.180Z,10.62
2024-05-09T06:00:42.844Z,10.73
2024-05-09T06:03:14.461Z,10.95
2024-05-09T06:05:43.583Z,11.04
2024-05-09T06:08:13.499Z,11.24
2024-05-09T06:10:41.467Z,11.35
2024-05-09T06:13:15.665Z,11.17
2024-05-09T06:15:43.437Z,11.45
2024-05-09T06:18:13.728Z,11.47
2024-05-09T06:20:41.963Z,11.39
2024-05-09T06:23:13.000Z,11.39
2024-05-09T06:25:40.369Z,11.38
2024-05-09T06:28:09.749Z,11.51
2024-05-09T06:30:42.123Z,11.54
2024-05-09T06:33:15.826Z,11.58
2024-05-09T06:35:43.722Z,11.64
2024-05-09T06:38:13.427Z,11.88
2024-05-09T06:40:42.430Z,12.02
2024-05-09T06:43:14.042Z,12.17
2024-05-09T06:45:43.897Z,12.30
2024-05-09T06:48:13.971Z,12.55
2024-05-09T06:50:41.511Z,12.78
2024-05-09T06:53:11.256Z,12.92
2024-05-09T06:55:38.281Z,13.10
2024-05-09T06:58:08.984Z,13.18
2024-05-09T07:00:39.525Z,13.63
2024-05-09T07:03:16.936Z,13.93
2024-05-09T07:05:46.025Z,14.38
2024-05-09T07:08:16.325Z,15.11
2024-05-09T07:10:44.260Z,16.07
2024-05-09T07:13:15.745Z,16.00
2024-05-09T07:15:42.991Z,16.36
2024-05-09T07:18:19.950Z,16.92
2024-05-09T07:20:48.036Z,17.49
2024-05-09T07:23:18.606Z,17.90
2024-05-09T07:25:46.146Z,18.68
2024-05-09T07:28:34.521Z,18.49
2024-05-09T07:31:03.879Z,18.49
2024-05-09T07:33:33.404Z,19.09
2024-05-09T07:36:02.856Z,19.31
2024-05-09T07:38:29.757Z,19.28
2024-05-09T07:40:59.218Z,19.25
2024-05-09T07:43:27.905Z,19.95
2024-05-09T07:46:00.888Z,19.91
2024-05-09T07:53:52.170Z,19.85
2024-05-09T07:56:25.417Z,19.56
2024-05-09T07:58:53.043Z,19.31
2024-05-09T08:01:25.483Z,19.29
2024-05-09T08:03:55.324Z,19.10
2024-05-09T08:06:26.288Z,19.44
2024-05-09T08:08:53.161Z,18.67
2024-05-09T08:11:23.673Z,18.52
2024-05-09T08:13:50.506Z,18.20
2024-05-09T08:16:20.100Z,17.80
2024-05-09T08:18:48.664Z,17.44
2024-05-09T08:21:20.988Z,16.97
2024-05-09T08:23:47.770Z,17.14
2024-05-09T08:26:17.128Z,17.56
2024-05-09T08:28:43.915Z,17.87
2024-05-09T08:31:13.402Z,17.99
2024-05-09T08:33:44.193Z,17.52
2024-05-09T08:36:13.689Z,18.06
2024-05-09T08:38:43.071Z,18.50
2024-05-09T08:41:16.158Z,18.40
2024-05-09T08:43:44.481Z,18.97
2024-05-09T08:46:15.638Z,18.89
2024-05-09T08:48:45.629Z,18.92
2024-05-09T08:51:16.866Z,18.86
2024-05-09T08:53:46.435Z,18.74
2024-05-09T08:56:17.326Z,18.61
2024-05-09T08:58:45.355Z,19.09
2024-05-09T09:01:16.429Z,19.34
2024-05-09T09:03:44.808Z,18.95
2024-05-09T09:06:15.185Z,19.38
2024-05-09T09:08:42.386Z,19.67
2024-05-09T09:11:14.440Z,19.92
2024-05-09T09:13:41.300Z,19.65
2024-05-09T09:16:10.940Z,19.69
2024-05-09T09:18:37.914Z,19.51
2024-05-09T09:21:12.351Z,19.23
2024-05-09T09:23:39.162Z,19.30
2024-05-09T09:26:08.650Z,19.15
2024-05-09T09:28:40.514Z,18.38
2024-05-09T09:31:09.972Z,18.64
2024-05-09T09:33:42.031Z,19.08
2024-05-09T09:36:13.644Z,18.62
2024-05-09T09:38:41.496Z,18.36
2024-05-09T09:41:12.296Z,18.76
2024-05-09T09:43:42.391Z,18.17
2024-05-09T09:46:12.962Z,18.45
2024-05-09T09:48:40.642Z,18.97
2024-05-09T09:51:10.885Z,19.30
2024-05-09T09:53:38.716Z,19.55
2024-05-09T09:56:10.544Z,19.66
2024-05-09T09:58:42.208Z,19.77
2024-05-09T10:01:11.681Z,19.65
2024-05-09T10:03:38.903Z,19.56
2024-05-09T10:06:10.289Z,18.95
2024-05-09T10:08:37.740Z,19.06
2024-05-09T10:11:07.636Z,19.59
2024-05-09T10:13:34.911Z,19.74
2024-05-09T10:16:13.005Z,19.82
2024-05-09T10:18:40.835Z,19.24
2024-05-09T10:21:20.071Z,19.58
2024-05-09T10:23:57.464Z,19.94
2024-05-09T10:26:33.817Z,19.89
2024-05-09T10:29:03.483Z,19.68
2024-05-09T10:31:35.780Z,20.18
2024-05-09T10:34:02.997Z,20.56
2024-05-09T10:36:32.722Z,20.37
2024-05-09T10:38:59.679Z,20.33
2024-05-09T10:41:29.195Z,19.86
2024-05-09T10:43:55.988Z,19.98
2024-05-09T10:46:25.445Z,19.90
2024-05-09T10:48:54.980Z,20.17
2024-05-09T10:51:24.458Z,20.44
2024-05-09T10:53:52.372Z,20.54
2024-05-09T10:56:21.732Z,20.73
2024-05-09T10:58:51.352Z,20.68
2024-05-09T11:01:21.060Z,20.20
2024-05-09T11:03:48.748Z,20.61
2024-05-09T11:06:28.206Z,20.45
2024-05-09T11:08:57.107Z,20.68
2024-05-09T11:11:27.775Z,20.91
2024-05-09T11:13:54.600Z,20.76
2024-05-09T11:16:24.183Z,20.77
2024-05-09T11:18:55.989Z,21.12
2024-05-09T11:21:28.219Z,21.39
2024-05-09T11:23:55.309Z,21.21
2024-05-09T11:26:28.017Z,21.13
2024-05-09T11:28:54.837Z,21.05
2024-05-09T11:31:24.406Z,21.02
2024-05-09T11:33:54.458Z,21.22
2024-05-09T11:36:23.965Z,20.93
2024-05-09T11:38:53.470Z,20.74
2024-05-09T11:41:23.686Z,20.90
2024-05-09T11:43:50.482Z,21.10
2024-05-09T11:46:20.003Z,21.16
2024-05-09T11:48:47.026Z,21.34
2024-05-09T11:51:16.512Z,21.45
2024-05-09T11:53:43.262Z,21.68
2024-05-09T11:56:15.459Z,21.75
2024-05-09T11:58:42.242Z,21.70
2024-05-09T12:01:11.694Z,21.88
2024-05-09T12:03:38.660Z,21.76
2024-05-09T12:06:08.422Z,21.77
2024-05-09T12:08:35.250Z,22.01
2024-05-09T12:11:04.792Z,22.31
2024-05-09T12:13:34.315Z,22.06
2024-05-09T12:16:03.995Z,22.12
2024-05-09T12:18:31.425Z,22.29
2024-05-09T12:21:00.935Z,22.47
2024-05-09T12:23:27.759Z,22.50
2024-05-09T12:25:57.556Z,22.33
2024-05-09T12:28:26.608Z,22.47
2024-05-09T12:30:58.654Z,22.16
2024-05-09T12:33:25.515Z,22.14
2024-05-09T12:35:55.436Z,22.11
2024-05-09T12:38:22.196Z,22.01
2024-05-09T12:40:51.663Z,21.99
2024-05-09T12:43:19.084Z,21.91
2024-05-09T12:45:48.892Z,22.00
2024-05-09T12:48:18.642Z,22.15
2024-05-09T12:50:48.267Z,22.02
2024-05-09T12:53:15.107Z,22.37
2024-05-09T12:55:53.028Z,22.24
2024-05-09T12:58:24.396Z,22.16
2024-05-09T13:00:54.603Z,21.92
2024-05-09T13:03:24.255Z,22.09
2024-05-09T13:05:54.118Z,22.23
2024-05-09T13:08:21.312Z,22.12
2024-05-09T13:10:50.937Z,22.54
2024-05-09T13:13:17.800Z,22.59
2024-05-09T13:15:47.286Z,22.45
2024-05-09T13:18:14.193Z,22.26
2024-05-09T13:20:46.783Z,22.74
2024-05-09T13:23:13.705Z,22.80
2024-05-09T13:25:43.127Z,22.84
2024-05-09T13:28:10.091Z,22.79
2024-05-09T13:30:41.797Z,22.79
2024-05-09T13:33:09.676Z,22.69
2024-05-09T13:35:40.755Z,22.96
2024-05-09T13:38:13.795Z,22.78
2024-05-09T13:40:43.510Z,22.23
2024-05-09T13:43:10.326Z,22.18
2024-05-09T13:45:39.795Z,22.35
2024-05-09T13:48:09.549Z,22.56
2024-05-09T13:50:39.201Z,22.14
2024-05-09T13:53:07.610Z,22.18
2024-05-09T13:55:41.585Z,22.27
2024-05-09T13:58:09.598Z,22.29
2024-05-09T14:00:46.419Z,22.91
2024-05-09T14:03:17.129Z,22.75
2024-05-09T14:05:48.244Z,22.97
2024-05-09T14:08:15.714Z,22.68
2024-05-09T14:10:48.201Z,22.88
2024-05-09T14:13:15.809Z,22.51
2024-05-09T14:15:45.553Z,22.70
2024-05-09T14:18:14.174Z,22.30
2024-05-09T14:20:44.090Z,22.44
2024-05-09T14:23:11.059Z,22.66
2024-05-09T14:25:42.550Z,22.55
2024-05-09T14:28:13.667Z,22.39
2024-05-09T14:30:43.314Z,22.37
2024-05-09T14:33:11.220Z,22.45
2024-05-09T14:35:41.015Z,22.53
2024-05-09T14:38:08.954Z,22.52
2024-05-09T14:40:43.012Z,22.69
2024-05-09T14:43:15.081Z,22.74
2024-05-09T14:45:45.426Z,22.58
2024-05-09T14:48:14.647Z,22.16
2024-05-09T14:50:44.848Z,21.66
2024-05-09T14:53:12.886Z,21.64
2024-05-09T14:55:43.810Z,21.67
2024-05-09T14:58:13.777Z,21.77
2024-05-09T15:00:48.515Z,22.09
2024-05-09T15:03:18.395Z,22.13
2024-05-09T15:05:48.229Z,22.28
2024-05-09T15:08:17.283Z,22.16
2024-05-09T15:10:47.135Z,22.26
2024-05-09T15:13:17.386Z,22.61
2024-05-09T15:15:47.061Z,22.40
2024-05-09T15:18:14.373Z,22.40
2024-05-09T15:20:44.648Z,22.05
2024-05-09T15:23:11.715Z,22.32
2024-05-09T15:25:41.088Z,22.27
2024-05-09T15:28:08.367Z,22.17
2024-05-09T15:30:42.944Z,22.06
2024-05-09T15:33:12.371Z,22.13
2024-05-09T15:35:42.528Z,22.18
2024-05-09T15:38:09.737Z,22.05
2024-05-09T15:40:40.773Z,21.95
2024-05-09T15:43:10.638Z,21.81
2024-05-09T15:45:43.680Z,22.07
2024-05-09T15:48:11.227Z,21.96
2024-05-09T15:50:42.572Z,21.85
2024-05-09T15:53:11.361Z,21.67
2024-05-09T15:55:41.750Z,22.03
2024-05-09T15:58:09.228Z,21.75
2024-05-09T16:00:42.207Z,21.33
2024-05-09T16:03:14.502Z,21.32
2024-05-09T16:05:47.049Z,21.30
2024-05-09T16:08:15.274Z,21.74
2024-05-09T16:10:46.210Z,21.99
2024-05-09T16:13:14.673Z,21.51
2024-05-09T16:15:45.909Z,20.95
2024-05-09T16:18:15.797Z,21.01
2024-05-09T16:20:48.502Z,21.27
2024-05-09T16:23:17.144Z,21.51
2024-05-09T16:25:47.931Z,21.67
2024-05-09T16:28:15.291Z,21.89
2024-05-09T16:30:44.852Z,22.20
2024-05-09T16:33:12.131Z,22.40
2024-05-09T16:35:44.443Z,22.78
2024-05-09T16:38:11.299Z,23.56
2024-05-09T16:40:41.572Z,23.36
2024-05-09T16:43:09.746Z,23.61
2024-05-09T16:45:40.056Z,23.93
2024-05-09T16:48:08.214Z,24.47
2024-05-09T16:50:37.871Z,25.34
2024-05-09T16:53:07.648Z,24.73
2024-05-09T16:55:37.308Z,24.26
2024-05-09T16:58:05.566Z,24.41
2024-05-09T17:00:40.992Z,24.55
2024-05-09T17:03:11.619Z,23.56
2024-05-09T17:05:42.404Z,23.40
2024-05-09T17:08:12.648Z,22.81
2024-05-09T17:10:42.237Z,22.62
2024-05-09T17:13:11.759Z,22.16
2024-05-09T17:15:41.176Z,21.70
2024-05-09T17:18:08.638Z,21.11
2024-05-09T17:20:38.315Z,21.17
2024-05-09T17:23:12.381Z,20.83
2024-05-09T17:25:45.039Z,20.57
2024-05-09T17:28:12.475Z,20.43
2024-05-09T17:30:42.974Z,20.29
2024-05-09T17:33:11.271Z,20.08
2024-05-09T17:35:41.913Z,19.94
2024-05-09T17:38:09.314Z,19.52
2024-05-09T17:40:39.452Z,19.25
2024-05-09T17:43:10.645Z,19.07
2024-05-09T17:45:41.547Z,19.03
2024-05-09T17:48:09.676Z,18.72
2024-05-09T17:50:40.090Z,18.50
2024-05-09T17:53:08.469Z,18.47
2024-05-09T17:55:38.209Z,18.08
2024-05-09T17:58:05.951Z,17.93
2024-05-09T18:00:41.148Z,17.70
2024-05-09T18:03:11.096Z,17.52
2024-05-09T18:05:42.313Z,17.27
2024-05-09T18:08:09.950Z,17.07
2024-05-09T18:10:40.464Z,16.87
2024-05-09T18:13:08.310Z,16.63
2024-05-09T18:15:41.189Z,16.39
2024-05-09T18:18:09.104Z,16.19
2024-05-09T18:20:44.005Z,15.93
2024-05-09T18:23:14.345Z,15.70
2024-05-09T18:25:45.018Z,15.52
2024-05-09T18:28:11.918Z,15.33
2024-05-09T18:30:44.448Z,15.09
2024-05-09T18:33:11.965Z,14.95
2024-05-09T18:35:45.272Z,14.70
2024-05-09T18:38:12.788Z,14.61
2024-05-09T18:40:44.025Z,14.64
2024-05-09T18:43:16.014Z,14.44
2024-05-09T18:45:45.616Z,14.21
2024-05-09T18:48:15.929Z,14.08
2024-05-09T18:50:42.806Z,13.99
2024-05-09T18:53:13.875Z,13.89
2024-05-09T18:55:40.916Z,13.88
2024-05-09T18:58:10.477Z,13.80
2024-05-09T19:00:40.077Z,13.68
2024-05-09T19:03:15.377Z,13.25
2024-05-09T19:05:43.983Z,13.52
2024-05-09T19:08:15.075Z,13.50
2024-05-09T19:10:42.331Z,13.28
2024-05-09T19:13:13.676Z,13.13
2024-05-09T19:15:42.185Z,13.13
2024-05-09T19:18:15.748Z,12.90
2024-05-09T19:20:43.087Z,12.92
2024-05-09T19:23:12.908Z,12.88
2024-05-09T19:25:39.865Z,12.71
2024-05-09T19:28:09.664Z,12.55
2024-05-09T19:30:40.766Z,12.50
2024-05-09T19:33:13.513Z,12.34
2024-05-09T19:35:43.903Z,12.33
2024-05-09T19:38:13.873Z,12.25
2024-05-09T19:40:41.388Z,12.31
2024-05-09T19:43:11.395Z,12.19
2024-05-09T19:45:38.531Z,12.23
2024-05-09T19:48:08.989Z,12.11
2024-05-09T19:50:41.718Z,12.12
2024-05-09T19:53:16.786Z,12.06
2024-05-09T19:55:43.995Z,11.95
2024-05-09T19:58:13.741Z,12.00
2024-05-09T20:00:42.933Z,12.04
2024-05-09T20:03:14.836Z,12.06
2024-05-09T20:05:44.311Z,12.05
2024-05-09T20:08:16.568Z,12.07
2024-05-09T20:10:43.795Z,11.98
2024-05-09T20:13:13.640Z,11.95
2024-05-09T20:15:40.565Z,11.92
2024-05-09T20:18:10.198Z,11.84
2024-05-09T20:20:41.273Z,11.80
2024-05-09T20:23:16.341Z,11.78
2024-05-09T20:25:43.608Z,11.74
2024-05-09T20:28:13.284Z,11.64
2024-05-09T20:30:40.236Z,11.61
2024-05-09T20:33:10.228Z,11.61
2024-05-09T20:35:37.541Z,11.47
2024-05-09T20:38:07.255Z,11.44
2024-05-09T20:40:38.948Z,11.45
2024-05-09T20:43:10.800Z,11.33
2024-05-09T20:45:38.279Z,11.31
2024-05-09T20:48:09.322Z,11.28
2024-05-09T20:50:40.508Z,11.18
2024-05-09T20:53:12.877Z,11.06
2024-05-09T20:55:44.441Z,10.95
2024-05-09T20:58:14.488Z,10.93
2024-05-09T21:00:44.704Z,10.85
2024-05-09T21:03:17.009Z,10.80
2024-05-09T21:05:45.163Z,10.73
2024-05-09T21:08:14.695Z,10.69
2024-05-09T21:10:44.184Z,10.65
2024-05-09T21:13:13.868Z,10.47
2024-05-09T21:15:41.233Z,10.65
2024-05-09T21:18:11.133Z,10.66
2024-05-09T21:20:38.058Z,10.66
2024-05-09T21:23:07.888Z,10.66
2024-05-09T21:25:34.673Z,10.64
2024-05-09T21:28:06.945Z,10.64
2024-05-09T21:30:41.253Z,10.68
2024-05-09T21:33:14.025Z,10.61
2024-05-09T21:35:42.236Z,10.64
2024-05-09T21:38:13.315Z,10.69
2024-05-09T21:40:40.233Z,10.79
2024-05-09T21:43:12.519Z,10.92
2024-05-09T21:45:39.455Z,11.08
2024-05-09T21:48:10.167Z,11.08
2024-05-09T21:50:40.944Z,11.10
2024-05-09T21:53:12.640Z,11.14
2024-05-09T21:55:40.211Z,11.15
2024-05-09T21:58:12.289Z,11.23
2024-05-09T22:00:40.843Z,11.33
2024-05-09T22:03:12.052Z,11.31
2024-05-09T22:05:41.566Z,11.45
2024-05-09T22:08:11.617Z,11.44
2024-05-09T22:10:38.546Z,11.42
2024-05-09T22:13:08.573Z,11.38
2024-05-09T22:15:40.313Z,11.36
2024-05-09T22:18:11.672Z,11.49
2024-05-09T22:20:44.286Z,11.35
2024-05-09T22:23:15.194Z,11.26
2024-05-09T22:25:42.412Z,11.21
2024-05-09T22:28:12.177Z,11.15
2024-05-09T22:30:42.876Z,11.15
2024-05-09T22:33:12.868Z,11.20
2024-05-09T22:35:40.610Z,11.29
2024-05-09T22:38:10.409Z,11.20
2024-05-09T22:40:45.726Z,11.19
2024-05-09T22:43:24.393Z,11.11
2024-05-09T22:45:55.314Z,11.15
2024-05-09T22:48:26.109Z,11.12
2024-05-09T22:50:53.477Z,11.13
2024-05-09T22:53:24.181Z,11.07
2024-05-09T22:55:50.983Z,11.01
2024-05-09T22:58:20.726Z,10.96
2024-05-09T23:00:47.742Z,10.95
2024-05-09T23:03:21.519Z,10.89
2024-05-09T23:05:48.660Z,10.89
2024-05-09T23:08:18.041Z,10.84
2024-05-09T23:10:44.937Z,10.88
2024-05-09T23:13:14.741Z,10.91
2024-05-09T23:15:41.580Z,10.84
2024-05-09T23:18:11.214Z,10.84
2024-05-09T23:20:43.499Z,10.83
2024-05-09T23:23:11.603Z,10.80
2024-05-09T23:25:42.210Z,10.78
2024-05-09T23:28:09.553Z,10.67
2024-05-09T23:30:40.887Z,10.70
2024-05-09T23:33:09.759Z,10.67
2024-05-09T23:35:39.514Z,10.62
2024-05-09T23:38:08.920Z,10.51
2024-05-09T23:40:40.796Z,10.41
2024-05-09T23:43:09.314Z,10.33
2024-05-09T23:45:39.093Z,10.23
2024-05-09T23:48:07.589Z,10.20
2024-05-09T23:50:39.080Z,10.11
2024-05-09T23:53:10.668Z,10.14
2024-05-09T23:55:40.674Z,10.23
2024-05-09T23:58:07.904Z,10.35
